Jackson Hole, Wyoming
Current Conditions -  °F | °C
As of 9:15 PM on Tuesday 25 Nov 2014 (Local Time) from KJAC Reporting Station
Overcast Overcast  
Wind Chill: 32°   Ceiling: 3000
Heat Index: 37°   Visibility: 8mi
Dew Point: 36°   Wind: 7mph
Humidity: 93%   Direction: 230°SW
Pressure: 30.06"   Gusts: NA
Location:  43.48°N, 110.761°W
Report Text: KJAC 260415Z AUTO 23006KT 8SM FEW024 BKN030 OVC055 03/02 A3006 RMK AO1
Loading
Personal Weather Stations






























Interactive Weather Map New forecast layout! Learn more

10-Day Weather Forecast

Advertisements
Track Severe Weather on mobile